createdAt,value
2023-05-18T00:01:10.255Z,71.45
2023-05-18T00:03:39.571Z,71.25
2023-05-18T00:06:10.480Z,71.25
2023-05-18T00:08:39.768Z,70.87
2023-05-18T00:11:09.404Z,71.25
2023-05-18T00:13:38.540Z,71.22
2023-05-18T00:16:10.877Z,71.12
2023-05-18T00:18:44.783Z,70.89
2023-05-18T00:21:15.696Z,71.01
2023-05-18T00:23:50.664Z,70.83
2023-05-18T00:26:20.471Z,71.00
2023-05-18T00:28:56.265Z,71.20
2023-05-18T00:31:28.523Z,70.92
2023-05-18T00:34:00.533Z,70.97
2023-05-18T00:36:32.972Z,71.05
2023-05-18T00:39:05.402Z,70.94
2023-05-18T00:41:35.014Z,71.20
2023-05-18T00:44:04.468Z,70.70
2023-05-18T00:46:33.399Z,71.16
2023-05-18T00:49:04.317Z,70.94
2023-05-18T00:51:35.980Z,71.03
2023-05-18T00:54:12.367Z,70.82
2023-05-18T00:56:46.173Z,71.16
2023-05-18T00:59:18.152Z,70.94
2023-05-18T01:01:48.186Z,71.07
2023-05-18T01:04:24.089Z,70.88
2023-05-18T01:07:06.222Z,71.03
2023-05-18T01:09:35.577Z,70.81
2023-05-18T01:12:12.909Z,71.16
2023-05-18T01:14:49.983Z,70.94
2023-05-18T01:17:34.796Z,70.98
2023-05-18T01:20:33.605Z,70.98
2023-05-18T01:23:29.396Z,71.18
2023-05-18T01:26:16.123Z,71.15
2023-05-18T01:28:52.563Z,71.21
2023-05-18T01:31:28.398Z,71.06
2023-05-18T01:33:58.488Z,71.02
2023-05-18T01:36:31.781Z,71.17
2023-05-18T01:39:03.948Z,71.02
2023-05-18T01:41:38.707Z,71.22
2023-05-18T01:44:19.263Z,70.96
2023-05-18T01:47:06.652Z,70.70
2023-05-18T01:49:43.888Z,71.12
2023-05-18T01:52:18.884Z,71.12
2023-05-18T01:54:54.201Z,71.00
2023-05-18T01:57:29.739Z,71.23
2023-05-18T02:00:00.671Z,71.21
2023-05-18T02:02:38.439Z,71.13
2023-05-18T02:05:11.781Z,70.94
2023-05-18T02:07:43.544Z,71.20
2023-05-18T02:10:14.934Z,71.12
2023-05-18T02:12:48.540Z,71.04
2023-05-18T02:15:19.335Z,70.96
2023-05-18T02:17:50.891Z,71.03
2023-05-18T02:20:20.473Z,71.09
2023-05-18T02:22:49.538Z,71.31
2023-05-18T02:25:19.870Z,71.24
2023-05-18T02:27:53.549Z,71.52
2023-05-18T02:30:24.759Z,71.23
2023-05-18T02:32:53.574Z,71.38
2023-05-18T02:35:23.005Z,71.18
2023-05-18T02:37:53.563Z,71.27
2023-05-18T02:40:23.119Z,71.56
2023-05-18T02:42:52.130Z,71.38
2023-05-18T02:45:21.627Z,71.47
2023-05-18T02:47:50.759Z,71.75
2023-05-18T02:50:20.144Z,71.84
2023-05-18T02:52:50.803Z,71.95
2023-05-18T02:55:19.881Z,71.51
2023-05-18T02:58:07.396Z,71.43
2023-05-18T03:01:03.086Z,71.77
2023-05-18T03:03:37.000Z,72.04
2023-05-18T03:06:08.551Z,71.69
2023-05-18T03:08:40.844Z,72.02
2023-05-18T03:11:12.971Z,72.18
2023-05-18T03:13:43.137Z,72.21
2023-05-18T03:16:15.065Z,72.26
2023-05-18T03:18:44.440Z,72.41
2023-05-18T03:21:16.997Z,72.09
2023-05-18T03:23:46.375Z,72.33
2023-05-18T03:26:16.277Z,72.31
2023-05-18T03:28:45.470Z,71.83
2023-05-18T03:31:14.587Z,71.92
2023-05-18T03:33:43.798Z,72.37
2023-05-18T03:36:22.323Z,71.89
2023-05-18T03:38:55.732Z,72.40
2023-05-18T03:41:29.544Z,72.17
2023-05-18T03:44:00.514Z,71.94
2023-05-18T03:46:31.548Z,72.22
2023-05-18T03:49:02.761Z,71.97
2023-05-18T03:51:38.300Z,72.27
2023-05-18T03:54:10.664Z,72.46
2023-05-18T03:56:44.534Z,72.37
2023-05-18T03:59:13.733Z,72.57
2023-05-18T04:01:43.863Z,72.39
2023-05-18T04:04:17.870Z,72.21
2023-05-18T04:06:46.642Z,72.55
2023-05-18T04:09:17.989Z,72.81
2023-05-18T04:11:46.960Z,72.15
2023-05-18T04:14:16.716Z,72.12
2023-05-18T04:16:46.273Z,72.37
2023-05-18T04:19:16.983Z,72.35
2023-05-18T04:21:46.846Z,72.32
2023-05-18T04:24:16.053Z,72.54
2023-05-18T04:26:46.091Z,72.53
2023-05-18T04:29:18.313Z,72.34
2023-05-18T04:31:49.667Z,72.17
2023-05-18T04:34:18.761Z,72.47
2023-05-18T04:36:48.424Z,72.53
2023-05-18T04:39:18.880Z,72.34
2023-05-18T04:41:57.655Z,72.07
2023-05-18T04:44:30.794Z,72.15
2023-05-18T04:47:03.975Z,72.10
2023-05-18T04:49:38.099Z,72.50
2023-05-18T04:52:11.845Z,72.18
2023-05-18T04:54:41.071Z,71.97
2023-05-18T04:57:11.534Z,72.04
2023-05-18T04:59:44.593Z,71.85
2023-05-18T05:02:14.706Z,72.03
2023-05-18T05:04:44.422Z,72.12
2023-05-18T05:07:13.885Z,72.07
2023-05-18T05:09:46.717Z,71.48
2023-05-18T05:12:15.604Z,71.81
2023-05-18T05:14:45.846Z,71.74
2023-05-18T05:17:28.589Z,72.01
2023-05-18T05:19:57.910Z,71.79
2023-05-18T05:22:27.030Z,71.72
2023-05-18T05:24:59.997Z,71.86
2023-05-18T05:27:40.147Z,71.82
2023-05-18T05:30:18.488Z,71.56
2023-05-18T05:32:50.272Z,71.55
2023-05-18T05:35:34.883Z,71.77
2023-05-18T05:38:05.350Z,71.59
2023-05-18T05:40:37.845Z,71.50
2023-05-18T05:43:07.608Z,71.08
2023-05-18T05:45:43.214Z,71.11
2023-05-18T05:48:15.522Z,71.12
2023-05-18T05:50:45.652Z,70.94
2023-05-18T05:53:17.401Z,71.42
2023-05-18T05:55:47.131Z,71.12
2023-05-18T05:58:20.787Z,70.90
2023-05-18T06:00:53.547Z,71.16
2023-05-18T06:03:23.092Z,70.53
2023-05-18T06:05:52.454Z,70.53
2023-05-18T06:08:24.695Z,70.79
2023-05-18T06:10:55.330Z,70.41
2023-05-18T06:13:24.281Z,69.71
2023-05-18T06:15:59.928Z,69.55
2023-05-18T06:18:31.904Z,69.87
2023-05-18T06:21:05.372Z,70.03
2023-05-18T06:23:39.459Z,69.86
2023-05-18T06:26:28.782Z,70.29
2023-05-18T06:29:27.466Z,70.08
2023-05-18T06:32:10.087Z,69.51
2023-05-18T06:34:45.406Z,69.67
2023-05-18T06:37:14.995Z,69.58
2023-05-18T06:39:47.292Z,69.05
2023-05-18T06:42:16.537Z,69.03
2023-05-18T06:44:56.059Z,69.47
2023-05-18T06:47:48.134Z,68.37
2023-05-18T06:50:17.601Z,69.38
2023-05-18T06:52:51.085Z,68.88
2023-05-18T06:55:20.541Z,68.39
2023-05-18T06:57:52.917Z,69.06
2023-05-18T07:00:26.838Z,68.50
2023-05-18T07:02:57.590Z,68.25
2023-05-18T07:05:36.891Z,67.50
2023-05-18T07:08:07.680Z,67.99
2023-05-18T07:10:36.995Z,68.11
2023-05-18T07:13:08.551Z,67.53
2023-05-18T07:15:39.191Z,68.09
2023-05-18T07:18:08.152Z,67.77
2023-05-18T07:20:37.691Z,66.90
2023-05-18T07:23:08.489Z,66.70
2023-05-18T07:25:38.011Z,66.81
2023-05-18T07:28:09.049Z,66.78
2023-05-18T07:30:38.402Z,66.76
2023-05-18T07:33:19.297Z,65.82
2023-05-18T07:35:48.221Z,65.42
2023-05-18T07:38:19.573Z,66.64
2023-05-18T07:40:48.685Z,65.94
2023-05-18T07:43:17.576Z,66.44
2023-05-18T07:45:46.656Z,66.15
2023-05-18T07:48:15.811Z,65.38
2023-05-18T07:50:44.851Z,64.84
2023-05-18T07:53:16.275Z,65.98
2023-05-18T07:55:45.759Z,64.64
2023-05-18T07:58:16.657Z,64.98
2023-05-18T08:00:45.834Z,64.96
2023-05-18T08:03:15.782Z,65.23
2023-05-18T08:05:45.934Z,64.71
2023-05-18T08:08:17.695Z,65.03
2023-05-18T08:10:47.236Z,64.65
2023-05-18T08:13:17.354Z,64.48
2023-05-18T08:15:51.055Z,64.46
2023-05-18T08:18:28.454Z,64.40
2023-05-18T08:20:57.761Z,63.44
2023-05-18T08:23:26.656Z,63.01
2023-05-18T08:25:59.654Z,62.49
2023-05-18T08:28:28.579Z,63.41
2023-05-18T08:30:57.873Z,62.69
2023-05-18T08:33:26.820Z,62.57
2023-05-18T08:35:56.245Z,62.31
2023-05-18T08:38:25.072Z,62.68
2023-05-18T08:41:06.641Z,61.60
2023-05-18T08:43:41.833Z,62.12
2023-05-18T08:46:20.159Z,62.48
2023-05-18T08:48:51.953Z,61.67
2023-05-18T08:51:22.033Z,61.93
2023-05-18T08:53:54.028Z,61.49
2023-05-18T08:56:25.935Z,61.18
2023-05-18T08:59:00.274Z,60.82
2023-05-18T09:01:30.850Z,60.70
2023-05-18T09:04:00.219Z,61.47
2023-05-18T09:06:29.623Z,61.33
2023-05-18T09:08:58.824Z,60.26
2023-05-18T09:11:28.481Z,60.86
2023-05-18T09:13:58.596Z,60.81
2023-05-18T09:16:28.804Z,60.40
2023-05-18T09:18:58.352Z,60.94
2023-05-18T09:21:32.230Z,60.60
2023-05-18T09:24:00.584Z,60.05
2023-05-18T09:26:30.453Z,59.28
2023-05-18T09:28:59.686Z,59.65
2023-05-18T09:31:31.723Z,60.28
2023-05-18T09:34:01.340Z,60.00
2023-05-18T09:36:33.958Z,59.32
2023-05-18T09:39:09.732Z,59.65
2023-05-18T09:41:40.850Z,59.44
2023-05-18T09:44:13.102Z,59.54
2023-05-18T09:46:44.012Z,58.67
2023-05-18T09:49:21.249Z,59.25
2023-05-18T09:51:50.614Z,58.21
2023-05-18T09:54:24.229Z,58.32
2023-05-18T09:57:09.033Z,58.31
2023-05-18T09:59:40.900Z,58.68
2023-05-18T10:02:15.722Z,58.46
2023-05-18T10:04:45.236Z,58.52
2023-05-18T10:07:18.230Z,58.16
2023-05-18T10:09:47.259Z,57.78
2023-05-18T10:12:18.114Z,58.35
2023-05-18T10:14:49.204Z,57.62
2023-05-18T10:17:18.958Z,58.32
2023-05-18T10:19:51.837Z,57.85
2023-05-18T10:22:23.136Z,57.96
2023-05-18T10:24:52.757Z,58.06
2023-05-18T10:27:27.765Z,58.00
2023-05-18T10:29:59.321Z,57.73
2023-05-18T10:32:30.966Z,57.71
2023-05-18T10:35:01.581Z,57.45
2023-05-18T10:37:33.784Z,57.03
2023-05-18T10:40:04.139Z,57.29
2023-05-18T10:42:33.627Z,57.81
2023-05-18T10:45:06.347Z,57.12
2023-05-18T10:47:39.408Z,56.87
2023-05-18T10:50:11.651Z,57.15
2023-05-18T10:52:42.966Z,57.34
2023-05-18T10:55:17.828Z,56.60
2023-05-18T10:57:56.745Z,56.89
2023-05-18T11:00:31.068Z,57.17
2023-05-18T11:03:07.951Z,57.18
2023-05-18T11:05:39.324Z,56.26
2023-05-18T11:08:08.715Z,56.52
2023-05-18T11:10:41.909Z,56.34
2023-05-18T11:13:14.798Z,56.28
2023-05-18T11:16:06.764Z,56.49
2023-05-18T11:18:38.362Z,56.41
2023-05-18T11:21:34.458Z,55.98
2023-05-18T11:24:19.846Z,55.60
2023-05-18T11:26:50.685Z,55.28
2023-05-18T11:29:22.290Z,55.41
2023-05-18T11:31:53.505Z,54.92
2023-05-18T11:34:52.739Z,54.92
2023-05-18T11:37:48.837Z,55.72
2023-05-18T11:40:47.131Z,54.93
2023-05-18T11:43:27.354Z,55.42
2023-05-18T11:46:00.866Z,55.17
2023-05-18T11:48:31.784Z,55.18
2023-05-18T11:51:09.032Z,54.32
2023-05-18T11:53:38.547Z,54.82
2023-05-18T11:56:18.026Z,54.82
2023-05-18T11:59:07.402Z,54.41
2023-05-18T12:01:41.521Z,54.49
2023-05-18T12:04:11.619Z,54.48
2023-05-18T12:06:44.546Z,54.20
2023-05-18T12:09:34.892Z,54.35
2023-05-18T12:12:13.540Z,54.25
2023-05-18T12:14:53.485Z,54.08
2023-05-18T12:17:23.905Z,54.36
2023-05-18T12:19:52.908Z,54.29
2023-05-18T12:22:22.121Z,54.22
2023-05-18T12:24:52.878Z,54.74
2023-05-18T12:27:22.806Z,54.39
2023-05-18T12:29:52.953Z,54.63
2023-05-18T12:32:25.726Z,54.18
2023-05-18T12:34:54.866Z,54.21
2023-05-18T12:37:34.121Z,53.67
2023-05-18T12:40:17.832Z,54.21
2023-05-18T12:42:56.545Z,54.02
2023-05-18T12:45:33.344Z,53.98
2023-05-18T12:48:15.647Z,53.98
2023-05-18T12:50:50.244Z,53.35
2023-05-18T12:53:19.752Z,53.36
2023-05-18T12:55:57.995Z,53.31
2023-05-18T12:58:27.377Z,53.83
2023-05-18T13:00:56.402Z,53.52
2023-05-18T13:03:26.238Z,53.72
2023-05-18T13:06:05.552Z,53.28
2023-05-18T13:08:35.772Z,53.36
2023-05-18T13:11:13.513Z,53.40
2023-05-18T13:14:04.502Z,53.56
2023-05-18T13:16:39.116Z,53.81
2023-05-18T13:19:09.632Z,53.95
2023-05-18T13:21:39.150Z,53.41
2023-05-18T13:24:08.669Z,53.94
2023-05-18T13:26:37.774Z,53.85
2023-05-18T13:29:08.062Z,53.73
2023-05-18T13:31:37.427Z,53.49
2023-05-18T13:34:06.342Z,53.84
2023-05-18T13:36:36.586Z,54.25
2023-05-18T13:39:06.763Z,53.78
2023-05-18T13:41:36.276Z,54.20
2023-05-18T13:44:05.613Z,54.16
2023-05-18T13:46:37.025Z,53.87
2023-05-18T13:49:05.946Z,54.14
2023-05-18T13:51:35.116Z,54.33
2023-05-18T13:54:04.408Z,54.24
2023-05-18T13:56:33.304Z,54.45
2023-05-18T13:59:03.167Z,54.03
2023-05-18T14:01:32.481Z,54.61
2023-05-18T14:04:01.832Z,54.01
2023-05-18T14:06:31.330Z,54.43
2023-05-18T14:09:01.702Z,54.64
2023-05-18T14:11:34.089Z,54.57
2023-05-18T14:14:03.267Z,54.67
2023-05-18T14:16:32.443Z,54.88
2023-05-18T14:19:01.666Z,54.83
2023-05-18T14:21:31.238Z,54.91
2023-05-18T14:24:03.513Z,54.12
2023-05-18T14:26:33.692Z,54.42
2023-05-18T14:29:03.740Z,54.52
2023-05-18T14:31:32.903Z,54.58
2023-05-18T14:34:03.575Z,54.32
2023-05-18T14:36:32.737Z,54.51
2023-05-18T14:39:01.918Z,54.81
2023-05-18T14:41:31.044Z,55.13
2023-05-18T14:44:03.171Z,54.70
2023-05-18T14:46:32.329Z,54.91
2023-05-18T14:49:01.524Z,54.62
2023-05-18T14:51:30.784Z,54.59
2023-05-18T14:54:00.073Z,54.50
2023-05-18T14:56:30.230Z,55.09
2023-05-18T14:58:59.223Z,54.50
2023-05-18T15:01:28.550Z,55.59
2023-05-18T15:03:57.719Z,55.09
2023-05-18T15:06:27.761Z,54.72
2023-05-18T15:08:57.320Z,55.60
2023-05-18T15:11:26.663Z,54.76
2023-05-18T15:13:55.774Z,55.33
2023-05-18T15:16:25.402Z,55.46
2023-05-18T15:18:54.587Z,55.79
2023-05-18T15:21:24.216Z,55.21
2023-05-18T15:23:53.201Z,55.74
2023-05-18T15:26:22.521Z,55.11
2023-05-18T15:28:53.777Z,55.83
2023-05-18T15:31:23.176Z,56.06
2023-05-18T15:33:52.572Z,55.25
2023-05-18T15:36:23.739Z,55.57
2023-05-18T15:38:53.399Z,56.33
2023-05-18T15:41:23.431Z,55.69
2023-05-18T15:43:54.435Z,55.42
2023-05-18T15:46:23.981Z,56.34
2023-05-18T15:48:55.961Z,56.29
2023-05-18T15:51:25.632Z,55.47
2023-05-18T15:53:54.633Z,56.30
2023-05-18T15:56:23.809Z,55.74
2023-05-18T15:58:55.492Z,55.59
2023-05-18T16:01:25.847Z,56.02
2023-05-18T16:03:55.968Z,56.47
2023-05-18T16:06:25.376Z,56.50
2023-05-18T16:08:55.740Z,56.01
2023-05-18T16:11:25.567Z,56.50
2023-05-18T16:13:56.796Z,55.31
2023-05-18T16:16:26.476Z,55.57
2023-05-18T16:18:55.466Z,56.05
2023-05-18T16:21:24.429Z,56.69
2023-05-18T16:23:53.312Z,56.73
2023-05-18T16:26:22.415Z,56.34
2023-05-18T16:28:51.790Z,56.29
2023-05-18T16:31:21.368Z,56.11
2023-05-18T16:33:50.091Z,56.57
2023-05-18T16:36:19.094Z,55.94
2023-05-18T16:38:47.900Z,56.25
2023-05-18T16:41:17.192Z,55.53
2023-05-18T16:43:46.060Z,56.49
2023-05-18T16:46:19.438Z,56.43
2023-05-18T16:48:51.389Z,56.44
2023-05-18T16:51:20.782Z,57.10
2023-05-18T16:53:51.705Z,56.69
2023-05-18T16:56:21.743Z,55.86
2023-05-18T16:58:55.718Z,56.90
2023-05-18T17:01:28.537Z,56.13
2023-05-18T17:03:58.690Z,56.91
2023-05-18T17:06:28.260Z,56.13
2023-05-18T17:08:57.434Z,56.67
2023-05-18T17:11:28.357Z,56.53
2023-05-18T17:13:59.505Z,56.56
2023-05-18T17:16:29.530Z,56.93
2023-05-18T17:18:58.593Z,57.61
2023-05-18T17:21:30.546Z,56.73
2023-05-18T17:23:59.788Z,56.37
2023-05-18T17:26:32.491Z,57.28
2023-05-18T17:29:01.312Z,57.24
2023-05-18T17:31:31.065Z,56.56
2023-05-18T17:34:00.159Z,57.43
2023-05-18T17:36:29.367Z,57.13
2023-05-18T17:38:58.420Z,56.95
2023-05-18T17:41:27.877Z,56.73
2023-05-18T17:44:01.695Z,57.57
2023-05-18T17:46:31.391Z,58.04
2023-05-18T17:49:03.474Z,57.49
2023-05-18T17:51:33.104Z,57.03
2023-05-18T17:54:02.468Z,57.89
2023-05-18T17:56:35.203Z,57.35
2023-05-18T17:59:05.012Z,57.37
2023-05-18T18:01:38.052Z,57.41
2023-05-18T18:04:07.123Z,57.33
2023-05-18T18:06:39.606Z,57.37
2023-05-18T18:09:08.666Z,57.96
2023-05-18T18:11:41.551Z,58.41
2023-05-18T18:14:15.813Z,58.20
2023-05-18T18:16:45.710Z,57.84
2023-05-18T18:19:18.683Z,57.63
2023-05-18T18:21:50.959Z,57.72
2023-05-18T18:24:21.803Z,58.54
2023-05-18T18:26:52.645Z,58.85
2023-05-18T18:29:21.956Z,58.96
2023-05-18T18:31:52.056Z,57.95
2023-05-18T18:34:23.651Z,58.58
2023-05-18T18:37:00.848Z,58.24
2023-05-18T18:39:34.510Z,58.89
2023-05-18T18:42:06.954Z,59.14
2023-05-18T18:44:37.728Z,58.57
2023-05-18T18:47:07.745Z,59.04
2023-05-18T18:49:56.109Z,59.23
2023-05-18T18:52:26.181Z,59.38
2023-05-18T18:54:55.799Z,59.40
2023-05-18T18:57:27.653Z,59.72
2023-05-18T18:59:58.578Z,59.93
2023-05-18T19:02:29.018Z,59.51
2023-05-18T19:04:59.114Z,58.82
2023-05-18T19:07:29.063Z,60.08
2023-05-18T19:09:57.951Z,59.75
2023-05-18T19:12:27.082Z,59.62
2023-05-18T19:14:56.044Z,59.90
2023-05-18T19:17:26.324Z,59.60
2023-05-18T19:19:55.351Z,60.20
2023-05-18T19:22:24.316Z,60.54
2023-05-18T19:24:53.211Z,60.75
2023-05-18T19:27:23.402Z,60.28
2023-05-18T19:29:52.698Z,59.67
2023-05-18T19:32:22.745Z,60.65
2023-05-18T19:34:51.822Z,60.26
2023-05-18T19:37:21.299Z,60.45
2023-05-18T19:39:50.491Z,60.90
2023-05-18T19:42:20.111Z,60.91
2023-05-18T19:44:49.132Z,61.02
2023-05-18T19:47:18.276Z,60.44
2023-05-18T19:49:47.422Z,60.74
2023-05-18T19:52:19.481Z,60.78
2023-05-18T19:54:50.533Z,61.47
2023-05-18T19:57:20.989Z,61.46
2023-05-18T19:59:50.274Z,61.43
2023-05-18T20:02:19.356Z,61.59
2023-05-18T20:04:48.602Z,61.53
2023-05-18T20:07:17.860Z,60.87
2023-05-18T20:09:47.061Z,61.26
2023-05-18T20:12:16.263Z,61.60
2023-05-18T20:14:46.635Z,61.74
2023-05-18T20:17:21.227Z,61.30
2023-05-18T20:19:50.554Z,60.97
2023-05-18T20:22:20.412Z,60.60
2023-05-18T20:24:50.683Z,61.29
2023-05-18T20:27:19.784Z,61.13
2023-05-18T20:29:48.610Z,61.25
2023-05-18T20:32:18.094Z,60.62
2023-05-18T20:34:47.275Z,61.49
2023-05-18T20:37:30.858Z,61.12
2023-05-18T20:40:06.806Z,61.33
2023-05-18T20:42:40.902Z,61.18
2023-05-18T20:45:11.756Z,60.94
2023-05-18T20:47:46.831Z,61.48
2023-05-18T20:50:17.327Z,60.72
2023-05-18T20:52:46.920Z,61.87
2023-05-18T20:55:17.949Z,61.21
2023-05-18T20:57:50.361Z,61.64
2023-05-18T21:00:22.906Z,61.88
2023-05-18T21:02:53.984Z,61.36
2023-05-18T21:05:23.202Z,60.86
2023-05-18T21:07:52.974Z,61.59
2023-05-18T21:10:25.970Z,61.15
2023-05-18T21:12:55.547Z,61.29
2023-05-18T21:15:26.848Z,60.99
2023-05-18T21:18:03.245Z,61.55
2023-05-18T21:20:33.352Z,61.34
2023-05-18T21:23:03.913Z,61.03
2023-05-18T21:25:33.918Z,60.86
2023-05-18T21:28:06.524Z,61.67
2023-05-18T21:30:35.312Z,60.85
2023-05-18T21:33:05.534Z,61.83
2023-05-18T21:35:34.863Z,61.53
2023-05-18T21:38:07.066Z,61.33
2023-05-18T21:40:36.067Z,61.42
2023-05-18T21:43:07.148Z,62.35
2023-05-18T21:45:36.013Z,61.43
2023-05-18T21:48:09.760Z,62.29
2023-05-18T21:50:38.746Z,62.41
2023-05-18T21:53:08.211Z,62.09
2023-05-18T21:55:37.237Z,61.98
2023-05-18T21:58:06.951Z,62.68
2023-05-18T22:00:37.675Z,62.73
2023-05-18T22:03:09.622Z,61.72
2023-05-18T22:05:40.895Z,62.14
2023-05-18T22:08:11.186Z,61.74
2023-05-18T22:10:43.223Z,62.35
2023-05-18T22:13:13.479Z,62.11
2023-05-18T22:15:42.299Z,61.99
2023-05-18T22:18:11.478Z,62.85
2023-05-18T22:20:41.313Z,62.12
2023-05-18T22:23:10.955Z,62.87
2023-05-18T22:25:42.165Z,63.07
2023-05-18T22:28:12.361Z,62.39
2023-05-18T22:30:44.251Z,62.32
2023-05-18T22:33:14.049Z,62.28
2023-05-18T22:35:43.040Z,62.67
2023-05-18T22:38:14.021Z,63.17
2023-05-18T22:40:43.779Z,63.20
2023-05-18T22:43:14.729Z,63.39
2023-05-18T22:45:43.582Z,62.45
2023-05-18T22:48:15.767Z,63.05
2023-05-18T22:50:47.769Z,62.99
2023-05-18T22:53:16.745Z,63.10
2023-05-18T22:55:48.522Z,62.96
2023-05-18T22:58:17.647Z,63.16
2023-05-18T23:00:46.628Z,62.68
2023-05-18T23:03:19.097Z,62.98
2023-05-18T23:05:48.320Z,63.64
2023-05-18T23:08:17.227Z,63.39
2023-05-18T23:10:46.138Z,63.45
2023-05-18T23:13:16.889Z,63.77
2023-05-18T23:15:47.203Z,63.12
2023-05-18T23:18:18.497Z,63.12
2023-05-18T23:20:50.107Z,63.38
2023-05-18T23:23:27.459Z,63.85
2023-05-18T23:25:59.605Z,63.86
2023-05-18T23:28:29.413Z,63.99
2023-05-18T23:31:03.021Z,63.67
2023-05-18T23:33:34.587Z,63.71
2023-05-18T23:36:08.056Z,64.12
2023-05-18T23:38:40.350Z,64.58
2023-05-18T23:41:10.260Z,64.50
2023-05-18T23:43:43.410Z,64.90
2023-05-18T23:46:16.481Z,64.62
2023-05-18T23:48:46.617Z,64.63
2023-05-18T23:51:18.717Z,64.54
2023-05-18T23:53:58.965Z,64.29
2023-05-18T23:56:29.051Z,65.24
2023-05-18T23:59:00.937Z,64.67
